sensor_id;sensor_type;location;lat;lon;timestamp;P1;durP1;ratioP1;P2;durP2;ratioP2
7737;SDS011;29398;45.328;5.558;2023-04-03T00:00:10;3.22;;;1.38;;
7737;SDS011;29398;45.328;5.558;2023-04-03T00:01:12;1.88;;;1.52;;
7737;SDS011;29398;45.328;5.558;2023-04-03T00:02:14;2.45;;;1.50;;
7737;SDS011;29398;45.328;5.558;2023-04-03T00:03:16;1.48;;;1.38;;
7737;SDS011;29398;45.328;5.558;2023-04-03T00:04:18;1.73;;;1.63;;
7737;SDS011;29398;45.328;5.558;2023-04-03T00:05:19;1.75;;;1.27;;
7737;SDS011;29398;45.328;5.558;2023-04-03T00:06:21;1.55;;;1.45;;
7737;SDS011;29398;45.328;5.558;2023-04-03T00:07:23;1.70;;;1.58;;
7737;SDS011;29398;45.328;5.558;2023-04-03T00:08:24;1.50;;;1.40;;
7737;SDS011;29398;45.328;5.558;2023-04-03T00:09:26;1.92;;;1.70;;
7737;SDS011;29398;45.328;5.558;2023-04-03T00:10:28;2.13;;;1.92;;
7737;SDS011;29398;45.328;5.558;2023-04-03T00:11:30;3.00;;;1.90;;
7737;SDS011;29398;45.328;5.558;2023-04-03T00:12:31;3.42;;;2.40;;
7737;SDS011;29398;45.328;5.558;2023-04-03T00:13:34;2.83;;;2.10;;
7737;SDS011;29398;45.328;5.558;2023-04-03T00:14:36;4.13;;;2.20;;
7737;SDS011;29398;45.328;5.558;2023-04-03T00:15:38;3.15;;;2.67;;
7737;SDS011;29398;45.328;5.558;2023-04-03T00:16:39;2.20;;;2.00;;
7737;SDS011;29398;45.328;5.558;2023-04-03T00:17:41;3.25;;;2.33;;
7737;SDS011;29398;45.328;5.558;2023-04-03T00:18:43;3.88;;;2.72;;
7737;SDS011;29398;45.328;5.558;2023-04-03T00:19:45;2.45;;;2.13;;
7737;SDS011;29398;45.328;5.558;2023-04-03T00:20:46;2.95;;;2.30;;
7737;SDS011;29398;45.328;5.558;2023-04-03T00:21:48;2.85;;;2.38;;
7737;SDS011;29398;45.328;5.558;2023-04-03T00:22:50;5.57;;;2.88;;
7737;SDS011;29398;45.328;5.558;2023-04-03T00:23:52;3.67;;;2.70;;
7737;SDS011;29398;45.328;5.558;2023-04-03T00:24:53;3.10;;;2.15;;
7737;SDS011;29398;45.328;5.558;2023-04-03T00:25:56;3.67;;;2.47;;
7737;SDS011;29398;45.328;5.558;2023-04-03T00:26:57;2.67;;;1.85;;
7737;SDS011;29398;45.328;5.558;2023-04-03T00:27:59;2.25;;;1.80;;
7737;SDS011;29398;45.328;5.558;2023-04-03T00:29:01;2.33;;;1.75;;
7737;SDS011;29398;45.328;5.558;2023-04-03T00:30:04;3.40;;;2.05;;
7737;SDS011;29398;45.328;5.558;2023-04-03T00:31:06;2.00;;;1.80;;
7737;SDS011;29398;45.328;5.558;2023-04-03T00:32:08;2.83;;;1.85;;
7737;SDS011;29398;45.328;5.558;2023-04-03T00:33:09;2.20;;;1.90;;
7737;SDS011;29398;45.328;5.558;2023-04-03T00:34:13;1.85;;;1.75;;
7737;SDS011;29398;45.328;5.558;2023-04-03T00:35:15;1.98;;;1.80;;
7737;SDS011;29398;45.328;5.558;2023-04-03T00:36:16;2.22;;;1.88;;
7737;SDS011;29398;45.328;5.558;2023-04-03T00:37:18;2.13;;;1.90;;
7737;SDS011;29398;45.328;5.558;2023-04-03T00:38:19;1.98;;;1.70;;
7737;SDS011;29398;45.328;5.558;2023-04-03T00:39:21;3.05;;;2.45;;
7737;SDS011;29398;45.328;5.558;2023-04-03T00:40:23;4.07;;;2.78;;
7737;SDS011;29398;45.328;5.558;2023-04-03T00:41:27;2.60;;;2.20;;
7737;SDS011;29398;45.328;5.558;2023-04-03T00:42:28;2.25;;;1.92;;
7737;SDS011;29398;45.328;5.558;2023-04-03T00:43:30;2.05;;;1.90;;
7737;SDS011;29398;45.328;5.558;2023-04-03T00:46:12;2.30;;;2.10;;
7737;SDS011;29398;45.328;5.558;2023-04-03T00:47:15;2.08;;;1.70;;
7737;SDS011;29398;45.328;5.558;2023-04-03T00:48:18;2.03;;;1.88;;
7737;SDS011;29398;45.328;5.558;2023-04-03T00:49:23;2.22;;;1.83;;
7737;SDS011;29398;45.328;5.558;2023-04-03T00:50:24;2.35;;;1.77;;
7737;SDS011;29398;45.328;5.558;2023-04-03T00:51:26;3.30;;;1.80;;
7737;SDS011;29398;45.328;5.558;2023-04-03T00:52:28;2.80;;;1.50;;
7737;SDS011;29398;45.328;5.558;2023-04-03T00:53:32;2.40;;;2.20;;
7737;SDS011;29398;45.328;5.558;2023-04-03T00:54:36;2.25;;;1.83;;
7737;SDS011;29398;45.328;5.558;2023-04-03T00:55:40;2.33;;;2.00;;
7737;SDS011;29398;45.328;5.558;2023-04-03T00:56:43;2.10;;;1.90;;
7737;SDS011;29398;45.328;5.558;2023-04-03T00:57:46;2.20;;;2.00;;
7737;SDS011;29398;45.328;5.558;2023-04-03T00:58:48;3.05;;;2.35;;
7737;SDS011;29398;45.328;5.558;2023-04-03T00:59:57;3.00;;;1.95;;
7737;SDS011;29398;45.328;5.558;2023-04-03T01:01:03;3.10;;;2.10;;
7737;SDS011;29398;45.328;5.558;2023-04-03T01:02:09;2.65;;;2.03;;
7737;SDS011;29398;45.328;5.558;2023-04-03T01:03:11;2.75;;;1.83;;
7737;SDS011;29398;45.328;5.558;2023-04-03T01:04:25;1.95;;;1.85;;
7737;SDS011;29398;45.328;5.558;2023-04-03T01:05:28;2.38;;;2.13;;
7737;SDS011;29398;45.328;5.558;2023-04-03T01:06:30;3.03;;;1.90;;
7737;SDS011;29398;45.328;5.558;2023-04-03T01:07:42;2.60;;;1.80;;
7737;SDS011;29398;45.328;5.558;2023-04-03T01:08:45;3.10;;;1.85;;
7737;SDS011;29398;45.328;5.558;2023-04-03T01:09:51;2.08;;;1.77;;
7737;SDS011;29398;45.328;5.558;2023-04-03T01:10:56;1.92;;;1.70;;
7737;SDS011;29398;45.328;5.558;2023-04-03T01:12:12;2.40;;;1.92;;
7737;SDS011;29398;45.328;5.558;2023-04-03T01:13:20;2.05;;;1.80;;
7737;SDS011;29398;45.328;5.558;2023-04-03T01:14:25;1.92;;;1.73;;
7737;SDS011;29398;45.328;5.558;2023-04-03T01:15:26;1.70;;;1.60;;
7737;SDS011;29398;45.328;5.558;2023-04-03T01:16:30;1.55;;;1.45;;
7737;SDS011;29398;45.328;5.558;2023-04-03T01:17:35;1.65;;;1.55;;
7737;SDS011;29398;45.328;5.558;2023-04-03T01:18:39;1.60;;;1.50;;
7737;SDS011;29398;45.328;5.558;2023-04-03T01:19:42;1.70;;;1.60;;
7737;SDS011;29398;45.328;5.558;2023-04-03T01:21:01;1.40;;;1.30;;
7737;SDS011;29398;45.328;5.558;2023-04-03T01:22:25;1.70;;;1.60;;
7737;SDS011;29398;45.328;5.558;2023-04-03T01:23:32;1.70;;;1.60;;
7737;SDS011;29398;45.328;5.558;2023-04-03T01:24:52;1.38;;;1.33;;
7737;SDS011;29398;45.328;5.558;2023-04-03T01:25:55;1.80;;;1.70;;
7737;SDS011;29398;45.328;5.558;2023-04-03T01:26:57;1.50;;;1.40;;
7737;SDS011;29398;45.328;5.558;2023-04-03T01:27:59;1.98;;;1.88;;
7737;SDS011;29398;45.328;5.558;2023-04-03T01:29:02;1.90;;;1.70;;
7737;SDS011;29398;45.328;5.558;2023-04-03T01:30:05;1.90;;;1.80;;
7737;SDS011;29398;45.328;5.558;2023-04-03T01:31:10;1.80;;;1.70;;
7737;SDS011;29398;45.328;5.558;2023-04-03T01:32:19;1.77;;;1.67;;
7737;SDS011;29398;45.328;5.558;2023-04-03T01:33:21;1.85;;;1.75;;
7737;SDS011;29398;45.328;5.558;2023-04-03T01:34:23;1.73;;;1.63;;
7737;SDS011;29398;45.328;5.558;2023-04-03T01:35:26;2.00;;;1.90;;
7737;SDS011;29398;45.328;5.558;2023-04-03T01:36:28;1.73;;;1.63;;
7737;SDS011;29398;45.328;5.558;2023-04-03T01:37:32;2.35;;;1.60;;
7737;SDS011;29398;45.328;5.558;2023-04-03T01:38:34;1.58;;;1.48;;
7737;SDS011;29398;45.328;5.558;2023-04-03T01:39:36;1.50;;;1.40;;
7737;SDS011;29398;45.328;5.558;2023-04-03T01:40:37;1.60;;;1.50;;
7737;SDS011;29398;45.328;5.558;2023-04-03T01:41:39;1.70;;;1.60;;
7737;SDS011;29398;45.328;5.558;2023-04-03T01:42:48;2.75;;;1.63;;
7737;SDS011;29398;45.328;5.558;2023-04-03T01:43:50;1.77;;;1.67;;
7737;SDS011;29398;45.328;5.558;2023-04-03T01:44:52;1.90;;;1.80;;
7737;SDS011;29398;45.328;5.558;2023-04-03T01:45:53;1.67;;;1.58;;
7737;SDS011;29398;45.328;5.558;2023-04-03T01:46:55;2.28;;;1.83;;
7737;SDS011;29398;45.328;5.558;2023-04-03T01:47:59;1.40;;;1.30;;
7737;SDS011;29398;45.328;5.558;2023-04-03T01:49:02;1.52;;;1.42;;
7737;SDS011;29398;45.328;5.558;2023-04-03T01:50:03;1.63;;;1.50;;
7737;SDS011;29398;45.328;5.558;2023-04-03T01:51:08;1.05;;;1.02;;
7737;SDS011;29398;45.328;5.558;2023-04-03T01:52:09;1.42;;;1.33;;
7737;SDS011;29398;45.328;5.558;2023-04-03T01:53:12;1.60;;;1.50;;
7737;SDS011;29398;45.328;5.558;2023-04-03T01:54:14;2.05;;;1.40;;
7737;SDS011;29398;45.328;5.558;2023-04-03T01:55:16;1.60;;;1.50;;
7737;SDS011;29398;45.328;5.558;2023-04-03T01:56:17;1.75;;;1.60;;
7737;SDS011;29398;45.328;5.558;2023-04-03T01:57:19;1.63;;;1.50;;
7737;SDS011;29398;45.328;5.558;2023-04-03T01:58:20;1.60;;;1.45;;
7737;SDS011;29398;45.328;5.558;2023-04-03T01:59:24;1.60;;;1.50;;
7737;SDS011;29398;45.328;5.558;2023-04-03T02:00:26;1.65;;;1.55;;
7737;SDS011;29398;45.328;5.558;2023-04-03T02:01:28;1.65;;;1.52;;
7737;SDS011;29398;45.328;5.558;2023-04-03T02:02:29;1.30;;;1.23;;
7737;SDS011;29398;45.328;5.558;2023-04-03T02:03:32;1.50;;;1.40;;
7737;SDS011;29398;45.328;5.558;2023-04-03T02:04:34;2.45;;;1.70;;
7737;SDS011;29398;45.328;5.558;2023-04-03T02:05:36;2.10;;;1.70;;
7737;SDS011;29398;45.328;5.558;2023-04-03T02:06:37;1.60;;;1.50;;
7737;SDS011;29398;45.328;5.558;2023-04-03T02:07:39;2.20;;;1.52;;
7737;SDS011;29398;45.328;5.558;2023-04-03T02:08:42;1.58;;;1.48;;
7737;SDS011;29398;45.328;5.558;2023-04-03T02:09:43;1.95;;;1.45;;
7737;SDS011;29398;45.328;5.558;2023-04-03T02:10:46;1.55;;;1.45;;
7737;SDS011;29398;45.328;5.558;2023-04-03T02:11:47;1.60;;;1.50;;
7737;SDS011;29398;45.328;5.558;2023-04-03T02:12:49;1.70;;;1.60;;
7737;SDS011;29398;45.328;5.558;2023-04-03T02:13:53;1.77;;;1.67;;
7737;SDS011;29398;45.328;5.558;2023-04-03T02:14:55;2.50;;;1.60;;
7737;SDS011;29398;45.328;5.558;2023-04-03T02:15:56;1.98;;;1.85;;
7737;SDS011;29398;45.328;5.558;2023-04-03T02:16:59;2.63;;;1.90;;
7737;SDS011;29398;45.328;5.558;2023-04-03T02:18:01;1.83;;;1.73;;
7737;SDS011;29398;45.328;5.558;2023-04-03T02:19:04;1.70;;;1.60;;
7737;SDS011;29398;45.328;5.558;2023-04-03T02:20:06;1.80;;;1.70;;
7737;SDS011;29398;45.328;5.558;2023-04-03T02:21:09;2.15;;;1.95;;
7737;SDS011;29398;45.328;5.558;2023-04-03T02:22:10;1.98;;;1.88;;
7737;SDS011;29398;45.328;5.558;2023-04-03T02:23:12;1.60;;;1.50;;
7737;SDS011;29398;45.328;5.558;2023-04-03T02:24:13;1.55;;;1.45;;
7737;SDS011;29398;45.328;5.558;2023-04-03T02:25:15;1.77;;;1.67;;
7737;SDS011;29398;45.328;5.558;2023-04-03T02:26:17;1.75;;;1.65;;
7737;SDS011;29398;45.328;5.558;2023-04-03T02:27:20;1.52;;;1.42;;
7737;SDS011;29398;45.328;5.558;2023-04-03T02:28:22;1.90;;;1.77;;
7737;SDS011;29398;45.328;5.558;2023-04-03T02:29:25;1.80;;;1.70;;
7737;SDS011;29398;45.328;5.558;2023-04-03T02:30:27;1.95;;;1.77;;
7737;SDS011;29398;45.328;5.558;2023-04-03T02:31:29;2.10;;;1.67;;
7737;SDS011;29398;45.328;5.558;2023-04-03T02:32:32;1.80;;;1.70;;
7737;SDS011;29398;45.328;5.558;2023-04-03T02:33:35;2.15;;;1.77;;
7737;SDS011;29398;45.328;5.558;2023-04-03T02:34:39;1.88;;;1.77;;
7737;SDS011;29398;45.328;5.558;2023-04-03T02:35:42;1.83;;;1.73;;
7737;SDS011;29398;45.328;5.558;2023-04-03T02:36:43;1.75;;;1.63;;
7737;SDS011;29398;45.328;5.558;2023-04-03T02:37:47;1.77;;;1.67;;
7737;SDS011;29398;45.328;5.558;2023-04-03T02:38:48;1.98;;;1.88;;
7737;SDS011;29398;45.328;5.558;2023-04-03T02:39:50;2.00;;;1.90;;
7737;SDS011;29398;45.328;5.558;2023-04-03T02:40:51;2.28;;;2.08;;
7737;SDS011;29398;45.328;5.558;2023-04-03T02:41:53;1.90;;;1.80;;
7737;SDS011;29398;45.328;5.558;2023-04-03T02:42:58;2.15;;;1.95;;
7737;SDS011;29398;45.328;5.558;2023-04-03T02:44:00;2.10;;;1.90;;
7737;SDS011;29398;45.328;5.558;2023-04-03T02:45:01;2.10;;;2.00;;
7737;SDS011;29398;45.328;5.558;2023-04-03T02:46:04;2.00;;;1.90;;
7737;SDS011;29398;45.328;5.558;2023-04-03T02:47:05;2.00;;;1.90;;
7737;SDS011;29398;45.328;5.558;2023-04-03T02:48:07;2.22;;;1.63;;
7737;SDS011;29398;45.328;5.558;2023-04-03T02:49:09;2.03;;;1.92;;
7737;SDS011;29398;45.328;5.558;2023-04-03T02:50:12;2.17;;;1.83;;
7737;SDS011;29398;45.328;5.558;2023-04-03T02:51:14;2.47;;;1.92;;
7737;SDS011;29398;45.328;5.558;2023-04-03T02:52:16;2.38;;;2.17;;
7737;SDS011;29398;45.328;5.558;2023-04-03T02:53:17;2.20;;;2.10;;
7737;SDS011;29398;45.328;5.558;2023-04-03T02:54:20;2.22;;;2.13;;
7737;SDS011;29398;45.328;5.558;2023-04-03T02:55:26;2.03;;;1.92;;
7737;SDS011;29398;45.328;5.558;2023-04-03T02:56:30;2.00;;;1.90;;
7737;SDS011;29398;45.328;5.558;2023-04-03T02:57:31;1.80;;;1.70;;
7737;SDS011;29398;45.328;5.558;2023-04-03T02:58:33;2.45;;;1.98;;
7737;SDS011;29398;45.328;5.558;2023-04-03T02:59:35;1.70;;;1.60;;
7737;SDS011;29398;45.328;5.558;2023-04-03T03:00:40;1.98;;;1.88;;
7737;SDS011;29398;45.328;5.558;2023-04-03T03:01:41;2.15;;;1.80;;
7737;SDS011;29398;45.328;5.558;2023-04-03T03:02:43;1.90;;;1.80;;
7737;SDS011;29398;45.328;5.558;2023-04-03T03:03:45;1.90;;;1.70;;
7737;SDS011;29398;45.328;5.558;2023-04-03T03:04:47;2.25;;;2.05;;
7737;SDS011;29398;45.328;5.558;2023-04-03T03:05:49;2.60;;;2.40;;
7737;SDS011;29398;45.328;5.558;2023-04-03T03:06:51;2.33;;;2.20;;
7737;SDS011;29398;45.328;5.558;2023-04-03T03:07:52;2.47;;;2.28;;
7737;SDS011;29398;45.328;5.558;2023-04-03T03:08:55;2.20;;;2.00;;
7737;SDS011;29398;45.328;5.558;2023-04-03T03:09:56;2.25;;;2.10;;
7737;SDS011;29398;45.328;5.558;2023-04-03T03:11:00;2.72;;;2.53;;
7737;SDS011;29398;45.328;5.558;2023-04-03T03:12:02;3.72;;;3.42;;
7737;SDS011;29398;45.328;5.558;2023-04-03T03:13:04;3.22;;;2.92;;
7737;SDS011;29398;45.328;5.558;2023-04-03T03:14:05;3.22;;;2.92;;
7737;SDS011;29398;45.328;5.558;2023-04-03T03:15:08;3.28;;;3.08;;
7737;SDS011;29398;45.328;5.558;2023-04-03T03:16:09;3.33;;;3.08;;
7737;SDS011;29398;45.328;5.558;2023-04-03T03:17:11;3.78;;;3.47;;
7737;SDS011;29398;45.328;5.558;2023-04-03T03:18:12;3.40;;;3.20;;
7737;SDS011;29398;45.328;5.558;2023-04-03T03:19:15;3.38;;;3.17;;
7737;SDS011;29398;45.328;5.558;2023-04-03T03:20:17;3.15;;;2.95;;
7737;SDS011;29398;45.328;5.558;2023-04-03T03:21:20;3.95;;;3.67;;
7737;SDS011;29398;45.328;5.558;2023-04-03T03:22:21;3.22;;;3.03;;
7737;SDS011;29398;45.328;5.558;2023-04-03T03:23:24;3.92;;;3.63;;
7737;SDS011;29398;45.328;5.558;2023-04-03T03:24:26;3.70;;;3.50;;
7737;SDS011;29398;45.328;5.558;2023-04-03T03:25:28;3.90;;;3.65;;
7737;SDS011;29398;45.328;5.558;2023-04-03T03:26:29;3.30;;;3.10;;
7737;SDS011;29398;45.328;5.558;2023-04-03T03:27:31;3.72;;;3.53;;
7737;SDS011;29398;45.328;5.558;2023-04-03T03:28:32;3.75;;;3.45;;
7737;SDS011;29398;45.328;5.558;2023-04-03T03:29:35;3.88;;;3.65;;
7737;SDS011;29398;45.328;5.558;2023-04-03T03:30:38;3.47;;;3.28;;
7737;SDS011;29398;45.328;5.558;2023-04-03T03:31:40;3.85;;;3.55;;
7737;SDS011;29398;45.328;5.558;2023-04-03T03:32:41;3.30;;;3.10;;
7737;SDS011;29398;45.328;5.558;2023-04-03T03:33:43;3.70;;;3.40;;
7737;SDS011;29398;45.328;5.558;2023-04-03T03:34:44;3.83;;;3.55;;
7737;SDS011;29398;45.328;5.558;2023-04-03T03:35:46;3.63;;;3.40;;
7737;SDS011;29398;45.328;5.558;2023-04-03T03:36:49;3.83;;;3.63;;
7737;SDS011;29398;45.328;5.558;2023-04-03T03:37:51;3.70;;;3.40;;
7737;SDS011;29398;45.328;5.558;2023-04-03T03:38:52;3.63;;;3.33;;
7737;SDS011;29398;45.328;5.558;2023-04-03T03:39:54;3.42;;;3.13;;
7737;SDS011;29398;45.328;5.558;2023-04-03T03:40:55;3.30;;;3.10;;
7737;SDS011;29398;45.328;5.558;2023-04-03T03:41:58;3.22;;;3.03;;
7737;SDS011;29398;45.328;5.558;2023-04-03T03:42:59;3.58;;;3.38;;
7737;SDS011;29398;45.328;5.558;2023-04-03T03:44:02;3.45;;;3.15;;
7737;SDS011;29398;45.328;5.558;2023-04-03T03:45:05;3.50;;;3.30;;
7737;SDS011;29398;45.328;5.558;2023-04-03T03:46:09;3.17;;;2.97;;
7737;SDS011;29398;45.328;5.558;2023-04-03T03:47:10;3.45;;;3.25;;
7737;SDS011;29398;45.328;5.558;2023-04-03T03:48:12;3.50;;;3.30;;
7737;SDS011;29398;45.328;5.558;2023-04-03T03:49:14;3.33;;;3.13;;
7737;SDS011;29398;45.328;5.558;2023-04-03T03:50:16;3.30;;;3.05;;
7737;SDS011;29398;45.328;5.558;2023-04-03T03:51:17;3.47;;;3.20;;
7737;SDS011;29398;45.328;5.558;2023-04-03T03:52:21;3.63;;;3.42;;
7737;SDS011;29398;45.328;5.558;2023-04-03T03:53:22;3.35;;;2.95;;
7737;SDS011;29398;45.328;5.558;2023-04-03T03:54:27;2.80;;;2.60;;
7737;SDS011;29398;45.328;5.558;2023-04-03T03:55:28;2.58;;;2.38;;
7737;SDS011;29398;45.328;5.558;2023-04-03T03:56:32;3.17;;;2.97;;
7737;SDS011;29398;45.328;5.558;2023-04-03T03:57:34;2.90;;;2.70;;
7737;SDS011;29398;45.328;5.558;2023-04-03T03:58:37;2.30;;;2.20;;
7737;SDS011;29398;45.328;5.558;2023-04-03T03:59:38;2.50;;;2.30;;
7737;SDS011;29398;45.328;5.558;2023-04-03T04:00:41;2.35;;;2.15;;
7737;SDS011;29398;45.328;5.558;2023-04-03T04:01:46;2.10;;;2.00;;
7737;SDS011;29398;45.328;5.558;2023-04-03T04:02:48;2.08;;;1.98;;
7737;SDS011;29398;45.328;5.558;2023-04-03T04:03:52;2.13;;;2.00;;
7737;SDS011;29398;45.328;5.558;2023-04-03T04:04:59;2.25;;;2.10;;
7737;SDS011;29398;45.328;5.558;2023-04-03T04:06:00;1.92;;;1.80;;
7737;SDS011;29398;45.328;5.558;2023-04-03T04:07:02;2.08;;;1.90;;
7737;SDS011;29398;45.328;5.558;2023-04-03T04:08:07;2.10;;;2.00;;
7737;SDS011;29398;45.328;5.558;2023-04-03T04:09:09;1.60;;;1.50;;
7737;SDS011;29398;45.328;5.558;2023-04-03T04:10:10;2.10;;;2.00;;
7737;SDS011;29398;45.328;5.558;2023-04-03T04:11:14;3.17;;;2.00;;
7737;SDS011;29398;45.328;5.558;2023-04-03T04:12:17;2.20;;;1.98;;
7737;SDS011;29398;45.328;5.558;2023-04-03T04:13:19;1.98;;;1.88;;
7737;SDS011;29398;45.328;5.558;2023-04-03T04:14:20;2.85;;;1.95;;
7737;SDS011;29398;45.328;5.558;2023-04-03T04:15:24;1.85;;;1.75;;
7737;SDS011;29398;45.328;5.558;2023-04-03T04:16:26;2.00;;;1.90;;
7737;SDS011;29398;45.328;5.558;2023-04-03T04:17:30;1.83;;;1.73;;
7737;SDS011;29398;45.328;5.558;2023-04-03T04:18:32;2.00;;;1.80;;
7737;SDS011;29398;45.328;5.558;2023-04-03T04:19:34;1.80;;;1.70;;
7737;SDS011;29398;45.328;5.558;2023-04-03T04:20:36;2.00;;;1.90;;
7737;SDS011;29398;45.328;5.558;2023-04-03T04:21:37;2.08;;;1.98;;
7737;SDS011;29398;45.328;5.558;2023-04-03T04:22:40;1.90;;;1.80;;
7737;SDS011;29398;45.328;5.558;2023-04-03T04:23:42;2.45;;;2.25;;
7737;SDS011;29398;45.328;5.558;2023-04-03T04:24:44;2.60;;;2.40;;
7737;SDS011;29398;45.328;5.558;2023-04-03T04:25:45;2.55;;;1.98;;
7737;SDS011;29398;45.328;5.558;2023-04-03T04:26:48;2.15;;;2.05;;
7737;SDS011;29398;45.328;5.558;2023-04-03T04:27:51;2.22;;;2.13;;
7737;SDS011;29398;45.328;5.558;2023-04-03T04:28:53;2.70;;;2.50;;
7737;SDS011;29398;45.328;5.558;2023-04-03T04:29:54;3.17;;;2.90;;
7737;SDS011;29398;45.328;5.558;2023-04-03T04:30:56;2.83;;;2.63;;
7737;SDS011;29398;45.328;5.558;2023-04-03T04:32:00;2.72;;;2.53;;
7737;SDS011;29398;45.328;5.558;2023-04-03T04:33:03;3.63;;;3.35;;
7737;SDS011;29398;45.328;5.558;2023-04-03T04:34:06;3.30;;;3.10;;
7737;SDS011;29398;45.328;5.558;2023-04-03T04:35:11;3.83;;;3.30;;
7737;SDS011;29398;45.328;5.558;2023-04-03T04:36:15;3.70;;;3.10;;
7737;SDS011;29398;45.328;5.558;2023-04-03T04:37:19;3.75;;;3.45;;
7737;SDS011;29398;45.328;5.558;2023-04-03T04:38:21;3.33;;;3.13;;
7737;SDS011;29398;45.328;5.558;2023-04-03T04:39:27;3.70;;;3.40;;
7737;SDS011;29398;45.328;5.558;2023-04-03T04:40:31;3.55;;;3.35;;
7737;SDS011;29398;45.328;5.558;2023-04-03T04:41:33;3.53;;;3.30;;
7737;SDS011;29398;45.328;5.558;2023-04-03T04:42:36;3.50;;;3.30;;
7737;SDS011;29398;45.328;5.558;2023-04-03T04:43:40;3.95;;;3.75;;
7737;SDS011;29398;45.328;5.558;2023-04-03T04:44:41;3.70;;;3.50;;
7737;SDS011;29398;45.328;5.558;2023-04-03T04:45:43;3.80;;;3.60;;
7737;SDS011;29398;45.328;5.558;2023-04-03T04:46:45;3.88;;;3.30;;
7737;SDS011;29398;45.328;5.558;2023-04-03T04:47:47;3.30;;;3.10;;
7737;SDS011;29398;45.328;5.558;2023-04-03T04:48:50;3.22;;;3.03;;
7737;SDS011;29398;45.328;5.558;2023-04-03T04:49:54;3.53;;;3.33;;
7737;SDS011;29398;45.328;5.558;2023-04-03T04:50:56;3.78;;;3.47;;
7737;SDS011;29398;45.328;5.558;2023-04-03T04:51:57;3.88;;;3.58;;
7737;SDS011;29398;45.328;5.558;2023-04-03T04:53:03;3.30;;;3.10;;
7737;SDS011;29398;45.328;5.558;2023-04-03T04:54:05;3.33;;;3.13;;
7737;SDS011;29398;45.328;5.558;2023-04-03T04:55:08;3.90;;;3.70;;
7737;SDS011;29398;45.328;5.558;2023-04-03T04:56:10;3.55;;;3.35;;
7737;SDS011;29398;45.328;5.558;2023-04-03T04:57:13;3.72;;;3.50;;
7737;SDS011;29398;45.328;5.558;2023-04-03T04:58:16;3.70;;;3.50;;
7737;SDS011;29398;45.328;5.558;2023-04-03T04:59:18;3.35;;;3.15;;
7737;SDS011;29398;45.328;5.558;2023-04-03T05:00:20;3.70;;;3.50;;
7737;SDS011;29398;45.328;5.558;2023-04-03T05:01:21;3.60;;;3.35;;
7737;SDS011;29398;45.328;5.558;2023-04-03T05:02:50;3.85;;;3.58;;
7737;SDS011;29398;45.328;5.558;2023-04-03T05:03:53;3.80;;;3.50;;
7737;SDS011;29398;45.328;5.558;2023-04-03T05:04:55;3.67;;;3.38;;
7737;SDS011;29398;45.328;5.558;2023-04-03T05:06:01;4.07;;;3.78;;
7737;SDS011;29398;45.328;5.558;2023-04-03T05:07:05;3.30;;;3.10;;
7737;SDS011;29398;45.328;5.558;2023-04-03T05:08:09;3.95;;;3.65;;
7737;SDS011;29398;45.328;5.558;2023-04-03T05:09:12;3.85;;;3.55;;
7737;SDS011;29398;45.328;5.558;2023-04-03T05:10:17;4.00;;;3.70;;
7737;SDS011;29398;45.328;5.558;2023-04-03T05:11:19;3.60;;;3.40;;
7737;SDS011;29398;45.328;5.558;2023-04-03T05:12:24;3.67;;;3.35;;
7737;SDS011;29398;45.328;5.558;2023-04-03T05:13:30;3.80;;;3.50;;
7737;SDS011;29398;45.328;5.558;2023-04-03T05:14:32;4.97;;;4.57;;
7737;SDS011;29398;45.328;5.558;2023-04-03T05:15:37;4.80;;;4.40;;
7737;SDS011;29398;45.328;5.558;2023-04-03T05:16:39;5.47;;;4.97;;
7737;SDS011;29398;45.328;5.558;2023-04-03T05:17:41;5.20;;;4.70;;
7737;SDS011;29398;45.328;5.558;2023-04-03T05:18:46;4.35;;;4.05;;
7737;SDS011;29398;45.328;5.558;2023-04-03T05:19:52;5.35;;;4.85;;
7737;SDS011;29398;45.328;5.558;2023-04-03T05:20:56;5.05;;;4.65;;
7737;SDS011;29398;45.328;5.558;2023-04-03T05:21:59;5.07;;;4.68;;
7737;SDS011;29398;45.328;5.558;2023-04-03T05:23:03;4.28;;;3.97;;
7737;SDS011;29398;45.328;5.558;2023-04-03T05:24:07;5.57;;;5.07;;
7737;SDS011;29398;45.328;5.558;2023-04-03T05:25:12;4.95;;;4.55;;
7737;SDS011;29398;45.328;5.558;2023-04-03T05:26:19;5.18;;;4.78;;
7737;SDS011;29398;45.328;5.558;2023-04-03T05:27:22;5.07;;;4.68;;
7737;SDS011;29398;45.328;5.558;2023-04-03T05:28:27;5.40;;;4.90;;
7737;SDS011;29398;45.328;5.558;2023-04-03T05:29:29;5.53;;;4.85;;
7737;SDS011;29398;45.328;5.558;2023-04-03T05:30:32;5.75;;;5.28;;
7737;SDS011;29398;45.328;5.558;2023-04-03T05:31:36;5.60;;;5.20;;
7737;SDS011;29398;45.328;5.558;2023-04-03T05:32:38;5.13;;;4.75;;
7737;SDS011;29398;45.328;5.558;2023-04-03T05:34:03;4.80;;;4.40;;
7737;SDS011;29398;45.328;5.558;2023-04-03T05:35:08;5.38;;;4.90;;
7737;SDS011;29398;45.328;5.558;2023-04-03T05:36:10;5.90;;;5.40;;
7737;SDS011;29398;45.328;5.558;2023-04-03T05:37:17;4.95;;;4.60;;
7737;SDS011;29398;45.328;5.558;2023-04-03T05:38:19;5.05;;;4.55;;
7737;SDS011;29398;45.328;5.558;2023-04-03T05:39:21;5.63;;;5.13;;
7737;SDS011;29398;45.328;5.558;2023-04-03T05:40:25;5.95;;;5.43;;
7737;SDS011;29398;45.328;5.558;2023-04-03T05:41:30;6.45;;;5.82;;
7737;SDS011;29398;45.328;5.558;2023-04-03T05:42:32;5.65;;;5.15;;
7737;SDS011;29398;45.328;5.558;2023-04-03T05:43:34;6.03;;;5.53;;
7737;SDS011;29398;45.328;5.558;2023-04-03T05:44:38;7.88;;;7.20;;
7737;SDS011;29398;45.328;5.558;2023-04-03T05:45:41;7.95;;;7.35;;
7737;SDS011;29398;45.328;5.558;2023-04-03T05:46:43;9.00;;;8.25;;
7737;SDS011;29398;45.328;5.558;2023-04-03T05:47:45;10.73;;;9.63;;
7737;SDS011;29398;45.328;5.558;2023-04-03T05:48:47;9.73;;;8.82;;
7737;SDS011;29398;45.328;5.558;2023-04-03T05:49:53;7.43;;;6.82;;
7737;SDS011;29398;45.328;5.558;2023-04-03T05:50:54;7.43;;;6.78;;
7737;SDS011;29398;45.328;5.558;2023-04-03T05:51:59;6.57;;;6.07;;
7737;SDS011;29398;45.328;5.558;2023-04-03T05:53:04;5.72;;;5.22;;
7737;SDS011;29398;45.328;5.558;2023-04-03T05:54:08;5.75;;;5.25;;
7737;SDS011;29398;45.328;5.558;2023-04-03T05:55:14;5.72;;;5.30;;
7737;SDS011;29398;45.328;5.558;2023-04-03T05:56:16;5.47;;;5.07;;
7737;SDS011;29398;45.328;5.558;2023-04-03T05:57:19;5.53;;;5.05;;
7737;SDS011;29398;45.328;5.558;2023-04-03T05:58:21;5.10;;;4.70;;
7737;SDS011;29398;45.328;5.558;2023-04-03T05:59:24;4.80;;;4.50;;
7737;SDS011;29398;45.328;5.558;2023-04-03T06:00:29;5.10;;;4.70;;
7737;SDS011;29398;45.328;5.558;2023-04-03T06:01:35;5.05;;;4.57;;
7737;SDS011;29398;45.328;5.558;2023-04-03T06:02:37;5.22;;;4.63;;
7737;SDS011;29398;45.328;5.558;2023-04-03T06:03:38;5.32;;;4.93;;
7737;SDS011;29398;45.328;5.558;2023-04-03T06:04:42;5.63;;;5.22;;
7737;SDS011;29398;45.328;5.558;2023-04-03T06:05:44;6.32;;;5.82;;
7737;SDS011;29398;45.328;5.558;2023-04-03T06:06:47;6.20;;;5.60;;
7737;SDS011;29398;45.328;5.558;2023-04-03T06:07:51;6.45;;;5.95;;
7737;SDS011;29398;45.328;5.558;2023-04-03T06:08:52;6.90;;;6.30;;
7737;SDS011;29398;45.328;5.558;2023-04-03T06:09:55;7.55;;;6.95;;
7737;SDS011;29398;45.328;5.558;2023-04-03T06:10:56;7.25;;;6.30;;
7737;SDS011;29398;45.328;5.558;2023-04-03T06:11:59;8.07;;;7.00;;
7737;SDS011;29398;45.328;5.558;2023-04-03T06:13:03;6.38;;;5.80;;
7737;SDS011;29398;45.328;5.558;2023-04-03T06:14:06;6.43;;;5.82;;
7737;SDS011;29398;45.328;5.558;2023-04-03T06:15:08;6.05;;;5.55;;
7737;SDS011;29398;45.328;5.558;2023-04-03T06:16:14;6.30;;;5.80;;
7737;SDS011;29398;45.328;5.558;2023-04-03T06:17:17;6.03;;;5.60;;
7737;SDS011;29398;45.328;5.558;2023-04-03T06:18:19;6.57;;;5.95;;
7737;SDS011;29398;45.328;5.558;2023-04-03T06:19:21;7.30;;;6.70;;
7737;SDS011;29398;45.328;5.558;2023-04-03T06:20:26;6.80;;;6.20;;
7737;SDS011;29398;45.328;5.558;2023-04-03T06:21:28;7.18;;;6.47;;
7737;SDS011;29398;45.328;5.558;2023-04-03T06:22:29;6.70;;;5.95;;
7737;SDS011;29398;45.328;5.558;2023-04-03T06:23:31;6.55;;;6.05;;
7737;SDS011;29398;45.328;5.558;2023-04-03T06:24:32;7.32;;;6.63;;
7737;SDS011;29398;45.328;5.558;2023-04-03T06:25:35;6.50;;;6.00;;
7737;SDS011;29398;45.328;5.558;2023-04-03T06:26:36;6.65;;;6.10;;